createdAt,value
2022-12-19T00:00:31.712Z,16.80
2022-12-19T00:02:59.630Z,15.13
2022-12-19T00:05:27.508Z,16.00
2022-12-19T00:07:55.317Z,15.53
2022-12-19T00:10:23.345Z,15.00
2022-12-19T00:12:51.722Z,16.57
2022-12-19T00:15:20.941Z,17.93
2022-12-19T00:17:48.888Z,14.67
2022-12-19T00:20:18.547Z,15.53
2022-12-19T00:22:47.189Z,15.57
2022-12-19T00:25:17.428Z,15.27
2022-12-19T00:27:45.368Z,15.90
2022-12-19T00:30:14.343Z,16.37
2022-12-19T00:32:43.610Z,16.60
2022-12-19T00:35:11.607Z,15.23
2022-12-19T00:37:45.475Z,15.10
2022-12-19T00:40:17.973Z,13.87
2022-12-19T00:42:51.711Z,13.77
2022-12-19T00:45:21.181Z,17.30
2022-12-19T00:47:50.402Z,14.77
2022-12-19T00:50:18.395Z,14.97
2022-12-19T00:52:46.673Z,16.70
2022-12-19T00:55:19.004Z,14.97
2022-12-19T00:57:47.918Z,16.30
2022-12-19T01:00:17.253Z,12.10
2022-12-19T01:02:45.393Z,17.07
2022-12-19T01:05:14.640Z,14.50
2022-12-19T01:07:42.613Z,16.83
2022-12-19T01:10:11.795Z,16.23
2022-12-19T01:12:47.992Z,15.17
2022-12-19T01:15:17.812Z,14.73
2022-12-19T01:17:46.227Z,15.27
2022-12-19T01:20:22.231Z,17.03
2022-12-19T01:22:57.233Z,13.53
2022-12-19T01:25:27.635Z,16.00
2022-12-19T01:27:55.672Z,14.83
2022-12-19T01:30:23.795Z,15.93
2022-12-19T01:32:52.581Z,16.40
2022-12-19T01:35:22.384Z,16.47
2022-12-19T01:37:51.117Z,13.87
2022-12-19T01:40:19.706Z,15.77
2022-12-19T01:42:48.053Z,14.80
2022-12-19T01:45:34.559Z,13.50
2022-12-19T01:48:15.457Z,12.97
2022-12-19T01:51:01.222Z,14.97
2022-12-19T01:53:34.411Z,13.10
2022-12-19T01:56:09.256Z,14.67
2022-12-19T01:58:39.361Z,13.67
2022-12-19T02:01:07.269Z,14.67
2022-12-19T02:03:38.476Z,15.40
2022-12-19T02:06:09.395Z,13.67
2022-12-19T02:08:38.336Z,13.03
2022-12-19T02:11:06.944Z,13.60
2022-12-19T02:13:35.166Z,13.67
2022-12-19T02:16:14.457Z,13.00
2022-12-19T02:18:49.166Z,13.77
2022-12-19T02:21:40.246Z,14.33
2022-12-19T02:24:46.601Z,13.77
2022-12-19T02:27:40.327Z,13.33
2022-12-19T02:30:14.297Z,13.77
2022-12-19T02:32:59.795Z,13.90
2022-12-19T02:35:35.018Z,12.37
2022-12-19T02:38:13.195Z,14.23
2022-12-19T02:40:45.936Z,14.83
2022-12-19T02:43:18.840Z,13.13
2022-12-19T02:45:53.204Z,13.60
2022-12-19T02:48:23.219Z,14.60
2022-12-19T02:50:51.027Z,13.70
2022-12-19T02:53:23.591Z,12.83
2022-12-19T02:56:06.509Z,12.73
2022-12-19T02:58:49.808Z,13.77
2022-12-19T03:01:28.531Z,12.43
2022-12-19T03:04:11.320Z,14.03
2022-12-19T03:06:46.236Z,11.67
2022-12-19T03:09:21.493Z,12.87
2022-12-19T03:11:51.901Z,12.90
2022-12-19T03:14:21.692Z,12.13
2022-12-19T03:16:50.097Z,12.30
2022-12-19T03:19:19.873Z,14.23
2022-12-19T03:21:49.216Z,13.37
2022-12-19T03:24:18.875Z,11.67
2022-12-19T03:26:51.913Z,12.70
2022-12-19T03:29:24.503Z,13.20
2022-12-19T03:31:53.569Z,12.93
2022-12-19T03:34:26.874Z,12.00
2022-12-19T03:36:58.228Z,12.00
2022-12-19T03:39:29.695Z,12.20
2022-12-19T03:42:17.535Z,11.23
2022-12-19T03:44:45.991Z,11.23
2022-12-19T03:47:18.956Z,11.27
2022-12-19T03:49:49.453Z,13.00
2022-12-19T03:52:27.488Z,12.27
2022-12-19T03:55:02.487Z,12.67
2022-12-19T03:57:34.620Z,11.00
2022-12-19T04:00:06.520Z,11.80
2022-12-19T04:02:37.153Z,11.67
2022-12-19T04:05:09.741Z,12.90
2022-12-19T04:07:38.768Z,10.97
2022-12-19T04:10:08.737Z,11.47
2022-12-19T04:12:42.589Z,11.07
2022-12-19T04:15:11.639Z,12.10
2022-12-19T04:17:43.171Z,11.37
2022-12-19T04:20:15.131Z,12.13
2022-12-19T04:22:48.693Z,10.43
2022-12-19T04:25:19.853Z,11.50
2022-12-19T04:27:52.347Z,12.93
2022-12-19T04:30:21.371Z,11.50
2022-12-19T04:32:50.979Z,11.63
2022-12-19T04:35:20.299Z,12.00
2022-12-19T04:37:48.091Z,12.93
2022-12-19T04:40:16.068Z,9.57
2022-12-19T04:42:44.287Z,11.80
2022-12-19T04:45:12.479Z,12.53
2022-12-19T04:47:40.712Z,11.67
2022-12-19T04:50:08.993Z,12.63
2022-12-19T04:52:38.238Z,14.17
2022-12-19T04:55:06.940Z,10.50
2022-12-19T04:57:34.984Z,11.47
2022-12-19T05:00:04.036Z,9.77
2022-12-19T05:02:32.289Z,10.93
2022-12-19T05:05:00.304Z,13.10
2022-12-19T05:07:28.092Z,11.33
2022-12-19T05:09:57.339Z,10.93
2022-12-19T05:12:25.173Z,11.20
2022-12-19T05:14:52.975Z,11.23
2022-12-19T05:17:20.818Z,11.47
2022-12-19T05:19:49.012Z,10.00
2022-12-19T05:22:16.917Z,12.10
2022-12-19T05:24:44.798Z,10.13
2022-12-19T05:27:13.999Z,9.63
2022-12-19T05:29:41.865Z,11.13
2022-12-19T05:32:09.796Z,9.77
2022-12-19T05:34:37.647Z,11.40
2022-12-19T05:37:05.454Z,11.13
2022-12-19T05:39:33.272Z,11.70
2022-12-19T05:42:01.096Z,10.87
2022-12-19T05:44:30.284Z,11.23
2022-12-19T05:46:58.615Z,11.17
2022-12-19T05:49:26.906Z,11.40
2022-12-19T05:51:55.297Z,10.00
2022-12-19T05:54:23.500Z,11.17
2022-12-19T05:56:51.315Z,8.32
2022-12-19T05:59:19.125Z,9.88
2022-12-19T06:01:48.325Z,9.83
2022-12-19T06:04:16.443Z,11.20
2022-12-19T06:06:44.448Z,10.52
2022-12-19T06:09:12.258Z,10.67
2022-12-19T06:11:40.232Z,9.73
2022-12-19T06:14:08.111Z,9.27
2022-12-19T06:16:35.995Z,10.50
2022-12-19T06:19:05.213Z,9.90
2022-12-19T06:21:33.073Z,11.83
2022-12-19T06:24:01.324Z,10.97
2022-12-19T06:26:29.720Z,11.80
2022-12-19T06:28:57.798Z,10.77
2022-12-19T06:31:26.161Z,9.38
2022-12-19T06:33:54.067Z,10.43
2022-12-19T06:36:24.962Z,11.10
2022-12-19T06:38:54.153Z,11.10
2022-12-19T06:41:40.094Z,10.80
2022-12-19T06:44:10.579Z,10.80
2022-12-19T06:46:40.059Z,11.37
2022-12-19T06:49:08.733Z,10.03
2022-12-19T06:51:38.293Z,10.33
2022-12-19T06:54:06.543Z,9.65
2022-12-19T06:56:36.855Z,10.93
2022-12-19T06:59:05.109Z,11.33
2022-12-19T07:01:46.102Z,11.10
2022-12-19T07:04:19.899Z,11.37
2022-12-19T07:06:49.942Z,10.87
2022-12-19T07:09:18.303Z,11.60
2022-12-19T07:11:46.289Z,11.75
2022-12-19T07:14:14.124Z,12.50
2022-12-19T07:16:42.990Z,12.60
2022-12-19T07:19:11.279Z,11.73
2022-12-19T07:21:40.245Z,12.23
2022-12-19T07:24:11.110Z,10.50
2022-12-19T07:26:39.438Z,11.65
2022-12-19T07:29:08.347Z,11.53
2022-12-19T07:31:36.689Z,13.63
2022-12-19T07:34:04.862Z,11.23
2022-12-19T07:36:32.816Z,12.77
2022-12-19T07:39:01.202Z,13.18
2022-12-19T07:41:30.748Z,11.38
2022-12-19T07:43:58.872Z,11.93
2022-12-19T07:46:29.742Z,12.68
2022-12-19T07:49:00.735Z,13.93
2022-12-19T07:51:28.951Z,12.77
2022-12-19T07:53:56.839Z,13.75
2022-12-19T07:56:24.685Z,14.30
2022-12-19T07:58:54.540Z,10.90
2022-12-19T08:01:22.676Z,12.93
2022-12-19T08:03:51.115Z,12.03
2022-12-19T08:06:19.158Z,12.77
2022-12-19T08:08:47.184Z,12.95
2022-12-19T08:11:17.289Z,13.83
2022-12-19T08:13:47.025Z,12.02
2022-12-19T08:16:16.762Z,12.23
2022-12-19T08:18:45.087Z,12.43
2022-12-19T08:21:13.779Z,12.90
2022-12-19T08:23:41.812Z,14.63
2022-12-19T08:26:13.080Z,14.53
2022-12-19T08:28:41.547Z,12.90
2022-12-19T08:31:11.690Z,14.60
2022-12-19T08:33:41.325Z,12.90
2022-12-19T08:36:11.890Z,12.20
2022-12-19T08:38:40.718Z,12.90
2022-12-19T08:41:09.389Z,13.77
2022-12-19T08:43:38.114Z,12.10
2022-12-19T08:46:06.375Z,13.50
2022-12-19T08:48:35.268Z,13.55
2022-12-19T08:51:07.275Z,13.48
2022-12-19T08:53:37.617Z,15.55
2022-12-19T08:56:07.607Z,12.30
2022-12-19T08:58:36.014Z,13.40
2022-12-19T09:01:06.271Z,13.40
2022-12-19T09:03:50.057Z,12.38
2022-12-19T09:06:24.482Z,13.20
2022-12-19T09:08:52.377Z,16.23
2022-12-19T09:11:22.741Z,13.43
2022-12-19T09:13:51.655Z,12.98
2022-12-19T09:16:22.289Z,15.40
2022-12-19T09:18:52.020Z,13.13
2022-12-19T09:21:21.354Z,13.80
2022-12-19T09:23:55.177Z,12.98
2022-12-19T09:26:33.056Z,12.45
2022-12-19T09:29:19.824Z,12.55
2022-12-19T09:31:57.180Z,13.57
2022-12-19T09:34:38.561Z,12.23
2022-12-19T09:37:07.899Z,13.02
2022-12-19T09:39:37.870Z,13.50
2022-12-19T09:42:19.163Z,12.00
2022-12-19T09:45:03.587Z,11.73
2022-12-19T09:47:33.990Z,12.07
2022-12-19T09:50:03.425Z,13.25
2022-12-19T09:52:35.608Z,12.85
2022-12-19T09:55:10.530Z,16.00
2022-12-19T09:57:47.419Z,13.02
2022-12-19T10:00:20.528Z,12.88
2022-12-19T10:02:52.581Z,11.50
2022-12-19T10:05:58.427Z,11.43
2022-12-19T10:08:20.017Z,12.55
2022-12-19T10:12:37.533Z,11.15
2022-12-19T10:14:11.305Z,9.32
2022-12-19T10:17:08.958Z,10.90
2022-12-19T10:19:49.367Z,12.98
2022-12-19T10:22:25.841Z,12.25
2022-12-19T10:25:31.181Z,9.73
2022-12-19T10:28:10.008Z,12.00
2022-12-19T10:30:43.986Z,10.30
2022-12-19T10:33:24.943Z,10.80
2022-12-19T10:35:57.533Z,10.18
2022-12-19T10:38:36.800Z,11.85
2022-12-19T10:41:15.519Z,9.75
2022-12-19T10:43:52.216Z,10.73
2022-12-19T10:46:26.512Z,10.57
2022-12-19T10:48:54.706Z,10.40
2022-12-19T10:51:26.875Z,9.38
2022-12-19T10:53:57.396Z,9.48
2022-12-19T10:56:34.995Z,10.00
2022-12-19T10:59:18.281Z,10.68
2022-12-19T11:02:00.363Z,9.90
2022-12-19T11:04:32.429Z,10.32
2022-12-19T11:07:18.218Z,9.75
2022-12-19T11:10:09.872Z,9.98
2022-12-19T11:17:22.116Z,10.13
2022-12-19T11:20:30.745Z,10.18
2022-12-19T11:27:42.909Z,10.15
2022-12-19T11:30:05.066Z,12.50
2022-12-19T11:30:46.074Z,9.20
2022-12-19T11:30:46.603Z,10.73
2022-12-19T11:32:42.292Z,9.68
2022-12-19T11:35:18.972Z,10.93
2022-12-19T11:37:55.511Z,10.77
2022-12-19T11:40:32.951Z,10.15
2022-12-19T11:43:42.484Z,9.63
2022-12-19T11:46:01.120Z,9.50
2022-12-19T11:48:37.527Z,10.43
2022-12-19T11:51:13.748Z,8.63
2022-12-19T11:53:50.672Z,9.43
2022-12-19T11:56:21.894Z,9.75
2022-12-19T11:58:52.849Z,10.00
2022-12-19T12:01:35.597Z,9.65
2022-12-19T12:04:38.180Z,10.82
2022-12-19T12:07:11.849Z,10.45
2022-12-19T12:12:13.085Z,10.25
2022-12-19T12:20:57.672Z,10.68
2022-12-19T12:26:50.710Z,9.02
2022-12-19T12:31:07.145Z,10.45
2022-12-19T12:31:12.075Z,11.98
2022-12-19T12:31:12.321Z,11.93
2022-12-19T12:31:44.723Z,9.68
2022-12-19T12:31:56.212Z,10.80
2022-12-19T12:35:46.387Z,10.95
2022-12-19T12:40:04.943Z,11.32
2022-12-19T12:42:44.961Z,10.80
2022-12-19T12:45:21.665Z,10.95
2022-12-19T12:47:53.082Z,11.75
2022-12-19T12:50:26.247Z,9.98
2022-12-19T12:52:59.004Z,11.85
2022-12-19T12:55:31.948Z,11.43
2022-12-19T12:58:01.075Z,12.75
2022-12-19T13:00:31.773Z,11.55
2022-12-19T13:03:07.156Z,12.77
2022-12-19T13:05:52.933Z,11.93
2022-12-19T13:08:49.988Z,12.18
2022-12-19T13:11:56.198Z,11.88
2022-12-19T13:14:46.327Z,11.70
2022-12-19T13:17:19.420Z,13.43
2022-12-19T13:19:56.715Z,13.40
2022-12-19T13:22:42.801Z,12.57
2022-12-19T13:25:52.094Z,12.00
2022-12-19T13:28:43.123Z,12.48
2022-12-19T13:31:23.218Z,12.73
2022-12-19T13:34:19.212Z,12.70
2022-12-19T13:39:57.947Z,12.82
2022-12-19T13:40:07.493Z,13.27
2022-12-19T13:43:09.322Z,12.85
2022-12-19T13:45:45.013Z,13.25
2022-12-19T13:48:17.687Z,13.30
2022-12-19T13:50:49.439Z,14.45
2022-12-19T13:53:19.422Z,13.20
2022-12-19T13:55:47.925Z,13.18
2022-12-19T13:58:38.315Z,13.85
2022-12-19T14:01:21.164Z,12.57
2022-12-19T14:03:51.837Z,12.98
2022-12-19T14:06:22.939Z,12.77
2022-12-19T14:09:46.247Z,10.65
2022-12-19T14:12:29.055Z,14.45
2022-12-19T14:15:12.524Z,15.05
2022-12-19T14:17:40.559Z,14.20
2022-12-19T14:22:02.054Z,13.38
2022-12-19T14:23:07.427Z,12.57
2022-12-19T14:28:18.227Z,13.43
2022-12-19T14:28:38.333Z,13.75
2022-12-19T14:31:12.745Z,16.08
2022-12-19T14:33:58.891Z,13.02
2022-12-19T14:36:34.241Z,14.40
2022-12-19T14:39:27.429Z,12.70
2022-12-19T14:42:49.252Z,13.60
2022-12-19T14:51:51.418Z,14.68
2022-12-19T14:52:35.769Z,13.88
2022-12-19T14:54:26.178Z,14.25
2022-12-19T14:55:35.953Z,14.40
2022-12-19T14:57:29.027Z,12.77
2022-12-19T15:01:07.625Z,13.18
2022-12-19T15:03:27.671Z,14.60
2022-12-19T15:06:49.205Z,13.07
2022-12-19T15:11:06.383Z,13.93
2022-12-19T15:16:10.291Z,13.95
2022-12-19T15:18:51.797Z,13.55
2022-12-19T15:21:30.664Z,13.90
2022-12-19T15:23:59.112Z,14.48
2022-12-19T15:26:32.339Z,12.93
2022-12-19T15:29:02.054Z,12.23
2022-12-19T15:31:35.052Z,13.75
2022-12-19T15:37:03.660Z,13.88
2022-12-19T15:39:32.526Z,12.82
2022-12-19T15:42:01.983Z,12.55
2022-12-19T15:44:34.416Z,13.43
2022-12-19T15:47:03.584Z,15.10
2022-12-19T15:49:35.301Z,13.75
2022-12-19T15:52:13.359Z,14.40
2022-12-19T15:54:50.349Z,15.18
2022-12-19T15:57:29.278Z,15.13
2022-12-19T16:00:00.395Z,14.07
2022-12-19T16:02:56.352Z,14.55
2022-12-19T16:05:19.052Z,14.45
2022-12-19T16:07:50.294Z,13.80
2022-12-19T16:10:19.281Z,14.13
2022-12-19T16:12:51.789Z,14.27
2022-12-19T16:15:26.023Z,14.77
2022-12-19T16:17:54.451Z,13.73
2022-12-19T16:20:25.438Z,14.18
2022-12-19T16:22:56.077Z,12.52
2022-12-19T16:25:28.225Z,14.10
2022-12-19T16:27:59.060Z,13.65
2022-12-19T16:30:30.340Z,14.48
2022-12-19T16:32:58.962Z,13.70
2022-12-19T16:36:02.453Z,12.23
2022-12-19T16:38:19.391Z,13.20
2022-12-19T16:40:47.908Z,12.38
2022-12-19T16:43:21.242Z,14.65
2022-12-19T16:45:49.579Z,13.77
2022-12-19T16:48:24.668Z,12.60
2022-12-19T16:50:53.197Z,11.20
2022-12-19T16:53:26.225Z,13.13
2022-12-19T16:55:59.798Z,11.57
2022-12-19T16:58:31.085Z,13.15
2022-12-19T17:00:59.702Z,13.88
2022-12-19T17:03:32.883Z,11.77
2022-12-19T17:06:03.959Z,11.48
2022-12-19T17:08:35.463Z,11.70
2022-12-19T17:11:04.293Z,12.63
2022-12-19T17:13:33.910Z,11.52
2022-12-19T17:16:03.187Z,13.07
2022-12-19T17:18:34.497Z,11.90
2022-12-19T17:21:05.980Z,11.90
2022-12-19T17:23:37.925Z,12.55
2022-12-19T17:26:06.692Z,14.10
2022-12-19T17:28:35.330Z,12.77
2022-12-19T17:31:07.509Z,12.52
2022-12-19T17:33:38.219Z,13.40
2022-12-19T17:36:12.942Z,14.10
2022-12-19T17:38:43.246Z,11.18
2022-12-19T17:41:16.934Z,12.52
2022-12-19T17:43:46.257Z,14.00
2022-12-19T17:46:19.533Z,12.98
2022-12-19T17:48:51.322Z,13.65
2022-12-19T17:51:20.886Z,11.68
2022-12-19T17:53:51.443Z,13.10
2022-12-19T17:56:21.044Z,12.27
2022-12-19T17:58:49.393Z,11.32
2022-12-19T18:01:22.105Z,15.38
2022-12-19T18:03:52.270Z,12.57
2022-12-19T18:06:21.469Z,13.73
2022-12-19T18:08:51.333Z,14.75
2022-12-19T18:11:22.637Z,13.35
2022-12-19T18:13:51.534Z,11.52
2022-12-19T18:16:27.180Z,11.80
2022-12-19T18:18:55.296Z,12.55
2022-12-19T18:21:24.510Z,12.88
2022-12-19T18:23:55.392Z,12.55
2022-12-19T18:26:23.615Z,13.25
2022-12-19T18:28:51.725Z,13.02
2022-12-19T18:31:25.689Z,13.70
2022-12-19T18:33:59.622Z,11.75
2022-12-19T18:36:35.962Z,12.52
2022-12-19T18:39:06.239Z,12.68
2022-12-19T18:41:34.290Z,12.40
2022-12-19T18:44:02.609Z,14.07
2022-12-19T18:46:31.718Z,13.25
2022-12-19T18:48:59.806Z,12.20
2022-12-19T18:51:28.059Z,14.07
2022-12-19T18:53:56.308Z,12.25
2022-12-19T18:56:25.796Z,12.98
2022-12-19T18:58:54.023Z,13.18
2022-12-19T19:01:22.259Z,12.75
2022-12-19T19:03:54.737Z,13.20
2022-12-19T19:06:26.326Z,10.02
2022-12-19T19:08:56.504Z,12.18
2022-12-19T19:11:26.783Z,12.45
2022-12-19T19:13:54.893Z,11.18
2022-12-19T19:16:24.891Z,12.57
2022-12-19T19:18:54.861Z,11.20
2022-12-19T19:21:25.662Z,14.23
2022-12-19T19:23:57.003Z,11.82
2022-12-19T19:26:26.580Z,11.13
2022-12-19T19:28:54.793Z,11.80
2022-12-19T19:31:26.829Z,11.90
2022-12-19T19:33:59.998Z,12.55
2022-12-19T19:36:31.937Z,13.98
2022-12-19T19:39:00.264Z,10.90
2022-12-19T19:41:30.675Z,11.02
2022-12-19T19:43:59.988Z,13.35
2022-12-19T19:46:28.064Z,12.07
2022-12-19T19:49:18.440Z,11.05
2022-12-19T19:51:50.109Z,12.20
2022-12-19T19:54:21.419Z,13.60
2022-12-19T19:56:51.188Z,11.95
2022-12-19T19:59:19.327Z,12.13
2022-12-19T20:01:48.234Z,12.20
2022-12-19T20:04:19.499Z,12.27
2022-12-19T20:06:47.845Z,10.90
2022-12-19T20:09:16.415Z,13.57
2022-12-19T20:11:46.221Z,13.52
2022-12-19T20:14:16.178Z,12.25
2022-12-19T20:16:47.667Z,10.82
2022-12-19T20:19:16.753Z,12.32
2022-12-19T20:21:45.647Z,12.73
2022-12-19T20:24:15.564Z,11.40
2022-12-19T20:26:46.858Z,12.38
2022-12-19T20:29:26.683Z,10.85
2022-12-19T20:31:56.432Z,10.23
2022-12-19T20:34:25.986Z,12.25
2022-12-19T20:37:03.950Z,11.85
2022-12-19T20:39:36.509Z,12.18
2022-12-19T20:42:06.560Z,10.63
2022-12-19T20:44:38.616Z,12.77
2022-12-19T20:47:07.076Z,12.77
2022-12-19T20:49:36.770Z,10.80
2022-12-19T20:52:07.888Z,12.32
2022-12-19T20:54:36.049Z,11.55
2022-12-19T20:57:04.307Z,11.02
2022-12-19T20:59:32.655Z,10.32
2022-12-19T21:02:02.713Z,11.40
2022-12-19T21:04:33.228Z,11.60
2022-12-19T21:07:01.622Z,11.48
2022-12-19T21:09:30.101Z,10.73
2022-12-19T21:11:58.419Z,11.27
2022-12-19T21:14:26.609Z,11.10
2022-12-19T21:16:54.985Z,10.45
2022-12-19T21:19:24.364Z,10.38
2022-12-19T21:21:52.354Z,11.55
2022-12-19T21:24:20.603Z,11.18
2022-12-19T21:26:57.650Z,10.00
2022-12-19T21:29:26.703Z,10.48
2022-12-19T21:31:55.854Z,9.32
2022-12-19T21:34:25.789Z,9.82
2022-12-19T21:36:54.098Z,9.75
2022-12-19T21:39:25.559Z,10.10
2022-12-19T21:41:53.969Z,10.35
2022-12-19T21:44:22.121Z,9.98
2022-12-19T21:46:50.397Z,11.50
2022-12-19T21:49:18.713Z,11.23
2022-12-19T21:51:48.363Z,12.23
2022-12-19T21:54:18.630Z,10.88
2022-12-19T21:56:47.179Z,10.65
2022-12-19T21:59:16.883Z,11.18
2022-12-19T22:01:45.902Z,10.43
2022-12-19T22:04:17.999Z,8.93
2022-12-19T22:06:47.806Z,11.75
2022-12-19T22:09:18.248Z,10.38
2022-12-19T22:11:47.234Z,10.48
2022-12-19T22:14:17.029Z,12.45
2022-12-19T22:16:45.455Z,11.40
2022-12-19T22:19:16.509Z,11.18
2022-12-19T22:21:44.986Z,8.65
2022-12-19T22:24:16.260Z,10.10
2022-12-19T22:26:45.129Z,11.25
2022-12-19T22:29:16.590Z,10.18
2022-12-19T22:31:45.889Z,12.35
2022-12-19T22:34:17.324Z,9.75
2022-12-19T22:36:46.302Z,10.77
2022-12-19T22:39:17.939Z,10.13
2022-12-19T22:41:46.695Z,11.18
2022-12-19T22:44:19.466Z,10.90
2022-12-19T22:46:47.993Z,10.20
2022-12-19T22:49:16.434Z,10.90
2022-12-19T22:51:44.686Z,10.88
2022-12-19T22:54:15.421Z,9.70
2022-12-19T22:56:43.626Z,11.45
2022-12-19T22:59:13.347Z,9.77
2022-12-19T23:01:43.349Z,11.85
2022-12-19T23:04:14.237Z,10.85
2022-12-19T23:06:42.886Z,10.02
2022-12-19T23:09:17.844Z,11.73
2022-12-19T23:11:49.925Z,10.63
2022-12-19T23:14:19.534Z,10.38
2022-12-19T23:16:48.143Z,11.40
2022-12-19T23:19:17.305Z,13.27
2022-12-19T23:21:46.009Z,10.27
2022-12-19T23:24:14.784Z,10.10
2022-12-19T23:26:43.099Z,11.65
2022-12-19T23:29:15.788Z,10.90
2022-12-19T23:31:46.307Z,9.82
2022-12-19T23:34:14.765Z,11.15
2022-12-19T23:37:10.186Z,10.25
2022-12-19T23:39:31.423Z,10.63
2022-12-19T23:41:59.997Z,10.02
2022-12-19T23:44:29.880Z,10.25
2022-12-19T23:47:03.135Z,12.35
2022-12-19T23:49:32.100Z,11.52
2022-12-19T23:52:00.441Z,9.75
2022-12-19T23:54:28.756Z,10.10
2022-12-19T23:56:56.989Z,11.30
2022-12-19T23:59:25.411Z,10.80
